createdAt,value
2023-06-05T00:37:04.792Z,95919.00
2023-06-05T00:38:04.852Z,95917.00
2023-06-05T00:39:04.878Z,95913.00
2023-06-05T00:40:04.966Z,95915.00
2023-06-05T00:41:06.085Z,95911.00
2023-06-05T00:42:06.029Z,95911.00
2023-06-05T00:43:05.088Z,95911.00
2023-06-05T00:44:06.145Z,95911.00
2023-06-05T00:45:06.206Z,95909.00
2023-06-05T00:46:05.263Z,95911.00
2023-06-05T00:47:06.253Z,95909.00
2023-06-05T00:48:05.288Z,95907.00
2023-06-05T00:49:06.289Z,95907.00
2023-06-05T00:50:05.314Z,95907.00
2023-06-05T00:51:05.357Z,95907.00
2023-06-05T00:52:05.391Z,95907.00
2023-06-05T00:53:05.400Z,95911.00
2023-06-05T00:54:05.440Z,95911.00
2023-06-05T00:55:06.425Z,95911.00
2023-06-05T00:56:06.412Z,95915.00
2023-06-05T00:57:05.413Z,95911.00
2023-06-05T00:58:06.436Z,95911.00
2023-06-05T00:59:05.455Z,95911.00
2023-06-05T01:00:06.486Z,95913.00
2023-06-05T01:01:05.642Z,95911.00
2023-06-05T01:02:06.569Z,95911.00
2023-06-05T01:03:06.631Z,95911.00
2023-06-05T01:04:06.577Z,95913.00
2023-06-05T01:05:05.593Z,95915.00
2023-06-05T01:06:06.572Z,95911.00
2023-06-05T01:07:06.582Z,95917.00
2023-06-05T01:08:05.579Z,95919.00
2023-06-05T01:09:05.605Z,95919.00
2023-06-05T01:10:06.634Z,95917.00
2023-06-05T01:11:05.637Z,95919.00
2023-06-05T01:12:05.617Z,95917.00
2023-06-05T01:13:06.651Z,95915.00
2023-06-05T01:14:05.633Z,95915.00
2023-06-05T01:15:05.645Z,95919.00
2023-06-05T01:16:05.637Z,95919.00
2023-06-05T01:17:05.658Z,95917.00
2023-06-05T01:18:05.774Z,95917.00
2023-06-05T01:19:06.646Z,95917.00
2023-06-05T01:20:05.665Z,95919.00
2023-06-05T01:21:06.934Z,95921.00
2023-06-05T01:22:05.700Z,95919.00
2023-06-05T01:23:06.724Z,95921.00
2023-06-05T01:24:06.912Z,95921.00
2023-06-05T01:25:05.795Z,95919.00
2023-06-05T01:26:06.790Z,95919.00
2023-06-05T01:27:05.812Z,95919.00
2023-06-05T01:28:06.866Z,95917.00
2023-06-05T01:29:06.907Z,95917.00
2023-06-05T01:30:05.950Z,95915.00
2023-06-05T01:31:07.259Z,95917.00
2023-06-05T01:32:05.945Z,95913.00
2023-06-05T01:33:06.016Z,95919.00
2023-06-05T01:34:06.958Z,95915.00
2023-06-05T01:35:05.987Z,95917.00
2023-06-05T01:36:06.992Z,95917.00
2023-06-05T01:37:06.022Z,95919.00
2023-06-05T01:38:07.337Z,95915.00
2023-06-05T01:39:06.118Z,95917.00
2023-06-05T01:40:06.057Z,95915.00
2023-06-05T01:41:07.262Z,95915.00
2023-06-05T01:42:07.092Z,95913.00
2023-06-05T01:43:06.094Z,95911.00
2023-06-05T01:44:07.101Z,95909.00
2023-06-05T01:45:06.112Z,95905.00
2023-06-05T01:46:06.107Z,95909.00
2023-06-05T01:47:07.113Z,95909.00
2023-06-05T01:48:06.197Z,95905.00
2023-06-05T01:49:07.150Z,95909.00
2023-06-05T01:50:06.182Z,95907.00
2023-06-05T01:51:07.308Z,95903.00
2023-06-05T01:52:06.193Z,95903.00
2023-06-05T01:53:07.166Z,95903.00
2023-06-05T01:54:06.176Z,95903.00
2023-06-05T01:55:06.180Z,95899.00
2023-06-05T01:56:07.172Z,95901.00
2023-06-05T01:57:06.168Z,95901.00
2023-06-05T01:58:06.155Z,95901.00
2023-06-05T01:59:07.168Z,95901.00
2023-06-05T02:00:07.166Z,95905.00
2023-06-05T02:01:06.298Z,95905.00
2023-06-05T02:02:06.230Z,95907.00
2023-06-05T02:03:07.297Z,95903.00
2023-06-05T02:04:07.568Z,95905.00
2023-06-05T02:05:06.270Z,95901.00
2023-06-05T02:06:07.254Z,95905.00
2023-06-05T02:07:07.319Z,95901.00
2023-06-05T02:08:06.531Z,95899.00
2023-06-05T02:09:06.321Z,95899.00
2023-06-05T02:10:07.349Z,95899.00
2023-06-05T02:11:07.484Z,95899.00
2023-06-05T02:12:07.357Z,95899.00
2023-06-05T02:13:07.388Z,95899.00
2023-06-05T02:14:07.400Z,95901.00
2023-06-05T02:15:07.392Z,95899.00
2023-06-05T02:16:06.454Z,95899.00
2023-06-05T02:17:07.526Z,95899.00
2023-06-05T02:18:07.442Z,95899.00
2023-06-05T02:19:07.454Z,95899.00
2023-06-05T02:20:07.445Z,95897.00
2023-06-05T02:21:07.588Z,95895.00
2023-06-05T02:22:06.440Z,95895.00
2023-06-05T02:23:06.509Z,95893.00
2023-06-05T02:24:06.461Z,95891.00
2023-06-05T02:25:07.483Z,95891.00
2023-06-05T02:26:06.446Z,95890.00
2023-06-05T02:27:07.455Z,95891.00
2023-06-05T02:28:07.473Z,95891.00
2023-06-05T02:29:06.562Z,95891.00
2023-06-05T02:30:06.499Z,95891.00
2023-06-05T02:31:07.709Z,95888.00
2023-06-05T02:32:07.590Z,95893.00
2023-06-05T02:33:07.566Z,95890.00
2023-06-05T02:34:06.519Z,95891.00
2023-06-05T02:35:06.544Z,95893.00
2023-06-05T02:36:06.535Z,95893.00
2023-06-05T02:37:07.531Z,95895.00
2023-06-05T02:38:06.539Z,95895.00
2023-06-05T02:39:06.537Z,95893.00
2023-06-05T02:40:06.581Z,95895.00
2023-06-05T02:41:07.810Z,95891.00
2023-06-05T02:42:06.524Z,95890.00
2023-06-05T02:43:06.572Z,95888.00
2023-06-05T02:44:07.536Z,95890.00
2023-06-05T02:45:06.555Z,95888.00
2023-06-05T02:46:07.636Z,95890.00
2023-06-05T02:47:06.517Z,95888.00
2023-06-05T02:48:07.578Z,95888.00
2023-06-05T02:49:07.501Z,95890.00
2023-06-05T02:50:07.518Z,95890.00
2023-06-05T02:51:06.695Z,95890.00
2023-06-05T02:52:06.520Z,95888.00
2023-06-05T02:53:07.520Z,95888.00
2023-06-05T02:54:09.013Z,95890.00
2023-06-05T02:55:06.543Z,95886.00
2023-06-05T02:56:07.502Z,95890.00
2023-06-05T02:57:07.481Z,95890.00
2023-06-05T02:58:07.457Z,95891.00
2023-06-05T02:59:07.462Z,95890.00
2023-06-05T03:00:07.465Z,95891.00
2023-06-05T03:01:07.575Z,95890.00
2023-06-05T03:02:06.452Z,95893.00
2023-06-05T03:03:07.487Z,95893.00
2023-06-05T03:04:06.435Z,95891.00
2023-06-05T03:05:07.407Z,95890.00
2023-06-05T03:06:06.391Z,95890.00
2023-06-05T03:07:07.410Z,95891.00
2023-06-05T03:08:06.382Z,95891.00
2023-06-05T03:09:07.723Z,95891.00
2023-06-05T03:10:07.392Z,95891.00
2023-06-05T03:11:07.624Z,95891.00
2023-06-05T03:12:07.365Z,95891.00
2023-06-05T03:13:06.351Z,95891.00
2023-06-05T03:14:06.340Z,95893.00
2023-06-05T03:15:06.333Z,95893.00
2023-06-05T03:16:06.406Z,95893.00
2023-06-05T03:17:06.323Z,95890.00
2023-06-05T03:18:07.344Z,95893.00
2023-06-05T03:19:07.294Z,95891.00
2023-06-05T03:20:07.295Z,95888.00
2023-06-05T03:21:06.455Z,95888.00
2023-06-05T03:22:06.313Z,95888.00
2023-06-05T03:23:06.264Z,95890.00
2023-06-05T03:24:06.386Z,95886.00
2023-06-05T03:25:06.268Z,95886.00
2023-06-05T03:26:06.250Z,95884.00
2023-06-05T03:27:06.259Z,95886.00
2023-06-05T03:28:07.226Z,95880.00
2023-06-05T03:29:07.214Z,95886.00
2023-06-05T03:30:06.190Z,95886.00
2023-06-05T03:31:07.424Z,95884.00
2023-06-05T03:32:06.175Z,95886.00
2023-06-05T03:33:06.288Z,95886.00
2023-06-05T03:34:06.218Z,95888.00
2023-06-05T03:35:07.167Z,95888.00
2023-06-05T03:36:07.171Z,95884.00
2023-06-05T03:37:07.152Z,95884.00
2023-06-05T03:38:07.142Z,95882.00
2023-06-05T03:39:07.140Z,95882.00
2023-06-05T03:40:07.168Z,95882.00
2023-06-05T03:41:07.358Z,95880.00
2023-06-05T03:42:06.111Z,95880.00
2023-06-05T03:43:06.104Z,95880.00
2023-06-05T03:44:06.096Z,95880.00
2023-06-05T03:45:06.067Z,95880.00
2023-06-05T03:46:06.079Z,95880.00
2023-06-05T03:47:06.124Z,95882.00
2023-06-05T03:48:06.075Z,95880.00
2023-06-05T03:49:06.055Z,95880.00
2023-06-05T03:50:06.051Z,95880.00
2023-06-05T03:51:06.209Z,95882.00
2023-06-05T03:52:07.020Z,95880.00
2023-06-05T03:53:06.028Z,95878.00
2023-06-05T03:54:07.013Z,95878.00
2023-06-05T03:55:07.020Z,95878.00
2023-06-05T03:56:06.998Z,95880.00
2023-06-05T03:57:05.999Z,95878.00
2023-06-05T03:58:05.981Z,95878.00
2023-06-05T03:59:06.956Z,95880.00
2023-06-05T04:00:05.953Z,95876.00
2023-06-05T04:01:07.219Z,95880.00
2023-06-05T04:02:06.026Z,95882.00
2023-06-05T04:03:06.005Z,95878.00
2023-06-05T04:04:07.009Z,95880.00
2023-06-05T04:05:05.956Z,95880.00
2023-06-05T04:06:06.918Z,95880.00
2023-06-05T04:07:06.912Z,95878.00
2023-06-05T04:08:06.917Z,95880.00
2023-06-05T04:09:05.886Z,95878.00
2023-06-05T04:10:05.886Z,95884.00
2023-06-05T04:11:05.875Z,95884.00
2023-06-05T04:12:05.862Z,95888.00
2023-06-05T04:13:05.852Z,95890.00
2023-06-05T04:14:08.568Z,95891.00
2023-06-05T04:15:06.874Z,95890.00
2023-06-05T04:16:06.864Z,95888.00
2023-06-05T04:17:06.906Z,95888.00
2023-06-05T04:18:06.883Z,95890.00
2023-06-05T04:19:05.818Z,95886.00
2023-06-05T04:20:05.809Z,95884.00
2023-06-05T04:21:06.928Z,95886.00
2023-06-05T04:22:05.789Z,95884.00
2023-06-05T04:23:06.796Z,95888.00
2023-06-05T04:24:06.860Z,95886.00
2023-06-05T04:25:06.764Z,95888.00
2023-06-05T04:26:05.749Z,95888.00
2023-06-05T04:27:06.751Z,95888.00
2023-06-05T04:28:05.746Z,95890.00
2023-06-05T04:29:06.729Z,95891.00
2023-06-05T04:30:06.732Z,95893.00
2023-06-05T04:31:05.853Z,95891.00
2023-06-05T04:32:06.721Z,95893.00
2023-06-05T04:33:06.787Z,95893.00
2023-06-05T04:34:05.691Z,95895.00
2023-06-05T04:35:06.702Z,95895.00
2023-06-05T04:36:06.692Z,95897.00
2023-06-05T04:37:06.693Z,95895.00
2023-06-05T04:38:05.673Z,95895.00
2023-06-05T04:39:06.653Z,95893.00
2023-06-05T04:40:05.649Z,95895.00
2023-06-05T04:41:05.646Z,95890.00
2023-06-05T04:42:15.194Z,95891.00
2023-06-05T04:43:06.627Z,95890.00
2023-06-05T04:44:05.598Z,95891.00
2023-06-05T04:45:05.630Z,95891.00
2023-06-05T04:46:06.627Z,95895.00
2023-06-05T04:47:05.588Z,95893.00
2023-06-05T04:48:05.683Z,95895.00
2023-06-05T04:49:05.574Z,95895.00
2023-06-05T04:50:06.574Z,95897.00
2023-06-05T04:51:05.551Z,95895.00
2023-06-05T04:52:06.551Z,95895.00
2023-06-05T04:53:05.561Z,95897.00
2023-06-05T04:54:06.534Z,95895.00
2023-06-05T04:55:06.524Z,95897.00
2023-06-05T04:56:05.524Z,95899.00
2023-06-05T04:57:05.516Z,95899.00
2023-06-05T04:58:06.518Z,95895.00
2023-06-05T04:59:05.508Z,95895.00
2023-06-05T05:00:06.495Z,95897.00
2023-06-05T05:01:06.656Z,95893.00
2023-06-05T05:02:06.538Z,95893.00
2023-06-05T05:03:05.522Z,95893.00
2023-06-05T05:04:05.533Z,95891.00
2023-06-05T05:05:05.464Z,95893.00
2023-06-05T05:06:05.619Z,95890.00
2023-06-05T05:07:06.462Z,95890.00
2023-06-05T05:08:06.499Z,95890.00
2023-06-05T05:09:07.337Z,95888.00
2023-06-05T05:10:05.665Z,95888.00
2023-06-05T05:11:05.674Z,95886.00
2023-06-05T05:12:06.761Z,95888.00
2023-06-05T05:13:06.680Z,95886.00
2023-06-05T05:14:05.671Z,95884.00
2023-06-05T05:15:05.656Z,95884.00
2023-06-05T05:16:05.699Z,95884.00
2023-06-05T05:17:05.702Z,95882.00
2023-06-05T05:18:05.685Z,95882.00
2023-06-05T05:19:05.644Z,95882.00
2023-06-05T05:20:06.656Z,95880.00
2023-06-05T05:21:06.793Z,95880.00
2023-06-05T05:22:06.679Z,95880.00
2023-06-05T05:23:06.693Z,95880.00
2023-06-05T05:24:05.766Z,95880.00
2023-06-05T05:25:06.620Z,95880.00
2023-06-05T05:26:05.622Z,95878.00
2023-06-05T05:27:05.604Z,95882.00
2023-06-05T05:28:06.721Z,95884.00
2023-06-05T05:29:06.642Z,95884.00
2023-06-05T05:30:06.622Z,95884.00
2023-06-05T05:31:06.771Z,95882.00
2023-06-05T05:32:05.715Z,95882.00
2023-06-05T05:33:05.663Z,95882.00
2023-06-05T05:34:06.615Z,95880.00
2023-06-05T05:35:06.443Z,95880.00
2023-06-05T05:36:05.636Z,95882.00
2023-06-05T05:37:06.649Z,95886.00
2023-06-05T05:38:05.711Z,95888.00
2023-06-05T05:39:06.693Z,95888.00
2023-06-05T05:40:05.694Z,95890.00
2023-06-05T05:41:05.754Z,95890.00
2023-06-05T05:42:12.761Z,95888.00
2023-06-05T05:43:05.756Z,95886.00
2023-06-05T05:44:05.670Z,95886.00
2023-06-05T05:45:06.654Z,95888.00
2023-06-05T05:46:06.684Z,95886.00
2023-06-05T05:47:06.639Z,95888.00
2023-06-05T05:48:05.694Z,95886.00
2023-06-05T05:49:05.661Z,95884.00
2023-06-05T05:50:06.668Z,95886.00
2023-06-05T05:51:06.767Z,95884.00
2023-06-05T05:52:06.618Z,95888.00
2023-06-05T05:53:06.606Z,95890.00
2023-06-05T05:54:06.747Z,95890.00
2023-06-05T05:55:06.572Z,95888.00
2023-06-05T05:56:06.585Z,95890.00
2023-06-05T05:57:06.575Z,95888.00
2023-06-05T05:58:06.546Z,95891.00
2023-06-05T05:59:06.574Z,95890.00
2023-06-05T06:00:06.546Z,95888.00
2023-06-05T06:01:06.929Z,95890.00
2023-06-05T06:02:06.555Z,95888.00
2023-06-05T06:03:05.690Z,95888.00
2023-06-05T06:04:06.547Z,95891.00
2023-06-05T06:05:06.518Z,95890.00
2023-06-05T06:06:06.506Z,95890.00
2023-06-05T06:07:05.496Z,95888.00
2023-06-05T06:08:06.470Z,95890.00
2023-06-05T06:09:06.502Z,95890.00
2023-06-05T06:10:06.483Z,95891.00
2023-06-05T06:11:06.731Z,95891.00
2023-06-05T06:12:06.487Z,95891.00
2023-06-05T06:13:06.460Z,95891.00
2023-06-05T06:14:05.451Z,95891.00
2023-06-05T06:15:05.509Z,95890.00
2023-06-05T06:16:06.585Z,95891.00
2023-06-05T06:17:07.389Z,95891.00
2023-06-05T06:18:06.640Z,95890.00
2023-06-05T06:19:06.657Z,95893.00
2023-06-05T06:20:06.686Z,95891.00
2023-06-05T06:21:05.779Z,95891.00
2023-06-05T06:22:06.781Z,95891.00
2023-06-05T06:23:06.846Z,95890.00
2023-06-05T06:24:06.994Z,95891.00
2023-06-05T06:25:05.892Z,95890.00
2023-06-05T06:26:06.936Z,95890.00
2023-06-05T06:27:12.243Z,95890.00
2023-06-05T06:28:06.950Z,95888.00
2023-06-05T06:29:06.933Z,95888.00
2023-06-05T06:30:05.915Z,95890.00
2023-06-05T06:31:05.961Z,95888.00
2023-06-05T06:32:05.899Z,95890.00
2023-06-05T06:33:06.948Z,95891.00
2023-06-05T06:34:05.903Z,95891.00
2023-06-05T06:35:06.874Z,95888.00
2023-06-05T06:36:06.869Z,95890.00
2023-06-05T06:37:05.861Z,95890.00
2023-06-05T06:38:05.863Z,95891.00
2023-06-05T06:39:06.865Z,95890.00
2023-06-05T06:40:06.848Z,95890.00
2023-06-05T06:41:05.905Z,95888.00
2023-06-05T06:42:06.832Z,95886.00
2023-06-05T06:43:06.824Z,95886.00
2023-06-05T06:44:06.872Z,95888.00
2023-06-05T06:45:06.896Z,95882.00
2023-06-05T06:46:06.894Z,95882.00
2023-06-05T06:47:06.912Z,95886.00
2023-06-05T06:48:08.433Z,95882.00
2023-06-05T06:49:06.944Z,95884.00
2023-06-05T06:50:05.924Z,95884.00
2023-06-05T06:51:05.928Z,95884.00
2023-06-05T06:52:05.932Z,95882.00
2023-06-05T06:53:05.872Z,95880.00
2023-06-05T06:54:06.876Z,95876.00
2023-06-05T06:55:06.884Z,95876.00
2023-06-05T06:56:07.140Z,95876.00
2023-06-05T06:57:05.845Z,95870.00
2023-06-05T06:58:06.868Z,95872.00
2023-06-05T06:59:06.833Z,95876.00
2023-06-05T07:00:06.813Z,95874.00
2023-06-05T07:01:05.908Z,95874.00
2023-06-05T07:02:05.846Z,95874.00
2023-06-05T07:03:05.862Z,95876.00
2023-06-05T07:04:06.784Z,95874.00
2023-06-05T07:05:06.792Z,95880.00
2023-06-05T07:06:06.778Z,95874.00
2023-06-05T07:07:06.767Z,95876.00
2023-06-05T07:08:05.767Z,95878.00
2023-06-05T07:09:06.766Z,95880.00
2023-06-05T07:10:05.765Z,95876.00
2023-06-05T07:11:06.833Z,95874.00
2023-06-05T07:12:05.787Z,95878.00
2023-06-05T07:13:06.736Z,95880.00
2023-06-05T07:14:06.734Z,95880.00
2023-06-05T07:15:06.716Z,95878.00
2023-06-05T07:16:05.718Z,95876.00
2023-06-05T07:17:06.779Z,95874.00
2023-06-05T07:18:05.758Z,95874.00
2023-06-05T07:19:06.694Z,95872.00
2023-06-05T07:20:06.834Z,95874.00
2023-06-05T07:21:05.688Z,95872.00
2023-06-05T07:22:05.668Z,95868.00
2023-06-05T07:23:06.684Z,95876.00
2023-06-05T07:24:06.792Z,95874.00
2023-06-05T07:25:06.803Z,95874.00
2023-06-05T07:26:06.809Z,95872.00
2023-06-05T07:27:06.848Z,95874.00
2023-06-05T07:28:06.920Z,95874.00
2023-06-05T07:29:06.923Z,95874.00
2023-06-05T07:30:06.940Z,95874.00
2023-06-05T07:31:07.155Z,95874.00
2023-06-05T07:32:07.143Z,95872.00
2023-06-05T07:33:10.371Z,95872.00
2023-06-05T07:34:07.137Z,95870.00
2023-06-05T07:35:07.033Z,95870.00
2023-06-05T07:36:07.018Z,95868.00
2023-06-05T07:37:06.048Z,95874.00
2023-06-05T07:38:05.989Z,95872.00
2023-06-05T07:39:05.996Z,95872.00
2023-06-05T07:40:05.981Z,95870.00
2023-06-05T07:41:07.145Z,95870.00
2023-06-05T07:42:06.984Z,95864.00
2023-06-05T07:43:06.964Z,95868.00
2023-06-05T07:44:06.970Z,95866.00
2023-06-05T07:45:06.949Z,95866.00
2023-06-05T07:46:06.958Z,95866.00
2023-06-05T07:47:07.177Z,95862.00
2023-06-05T07:48:06.993Z,95862.00
2023-06-05T07:49:06.929Z,95864.00
2023-06-05T07:50:06.941Z,95862.00
2023-06-05T07:51:07.142Z,95862.00
2023-06-05T07:52:07.164Z,95864.00
2023-06-05T07:53:05.886Z,95864.00
2023-06-05T07:54:05.893Z,95858.00
2023-06-05T07:55:06.891Z,95860.00
2023-06-05T07:56:06.897Z,95860.00
2023-06-05T07:57:07.152Z,95858.00
2023-06-05T07:58:05.972Z,95860.00
2023-06-05T07:59:06.840Z,95858.00
2023-06-05T08:00:05.834Z,95856.00
2023-06-05T08:01:05.818Z,95854.00
2023-06-05T08:02:06.844Z,95852.00
2023-06-05T08:03:07.978Z,95850.00
2023-06-05T08:04:07.012Z,95854.00
2023-06-05T08:05:05.857Z,95852.00
2023-06-05T08:06:05.798Z,95852.00
2023-06-05T08:07:06.801Z,95850.00
2023-06-05T08:08:06.785Z,95848.00
2023-06-05T08:09:05.778Z,95848.00
2023-06-05T08:10:06.782Z,95850.00
2023-06-05T08:11:06.952Z,95848.00
2023-06-05T08:12:06.751Z,95846.00
2023-06-05T08:13:06.748Z,95848.00
2023-06-05T08:14:05.739Z,95846.00
2023-06-05T08:15:05.719Z,95848.00
2023-06-05T08:16:06.728Z,95846.00
2023-06-05T08:17:06.827Z,95846.00
2023-06-05T08:18:05.850Z,95846.00
2023-06-05T08:19:06.695Z,95848.00
2023-06-05T08:20:06.762Z,95848.00
2023-06-05T08:21:06.778Z,95850.00
2023-06-05T08:22:06.671Z,95844.00
2023-06-05T08:23:07.807Z,95846.00
2023-06-05T08:24:06.767Z,95848.00
2023-06-05T08:25:06.655Z,95846.00
2023-06-05T08:26:05.636Z,95846.00
2023-06-05T08:27:05.675Z,95844.00
2023-06-05T08:28:06.663Z,95844.00
2023-06-05T08:29:06.668Z,95843.00
2023-06-05T08:30:06.690Z,95844.00
2023-06-05T08:31:06.767Z,95844.00
2023-06-05T08:32:06.832Z,95846.00
2023-06-05T08:33:06.770Z,95844.00
2023-06-05T08:34:06.759Z,95848.00
2023-06-05T08:35:05.734Z,95848.00
2023-06-05T08:36:06.756Z,95846.00
2023-06-05T08:37:06.791Z,95848.00
2023-06-05T08:38:05.795Z,95850.00
2023-06-05T08:39:06.816Z,95848.00
2023-06-05T08:40:06.841Z,95848.00
2023-06-05T08:41:07.088Z,95848.00
2023-06-05T08:42:07.209Z,95846.00
2023-06-05T08:43:05.895Z,95848.00
2023-06-05T08:44:06.901Z,95850.00
2023-06-05T08:45:06.910Z,95848.00
2023-06-05T08:46:06.080Z,95848.00
2023-06-05T08:47:06.955Z,95846.00
2023-06-05T08:48:07.010Z,95844.00
2023-06-05T08:49:06.958Z,95846.00
2023-06-05T08:50:06.964Z,95844.00
2023-06-05T08:51:07.045Z,95844.00
2023-06-05T08:52:05.957Z,95841.00
2023-06-05T08:53:06.953Z,95839.00
2023-06-05T08:54:06.997Z,95839.00
2023-06-05T08:55:07.051Z,95844.00
2023-06-05T08:56:07.118Z,95843.00
2023-06-05T08:57:07.679Z,95844.00
2023-06-05T08:58:07.197Z,95844.00
2023-06-05T08:59:06.208Z,95843.00
2023-06-05T09:00:07.190Z,95844.00
2023-06-05T09:01:07.466Z,95846.00
2023-06-05T09:02:06.267Z,95846.00
2023-06-05T09:03:07.368Z,95846.00
2023-06-05T09:04:07.414Z,95848.00
2023-06-05T09:05:07.445Z,95850.00
2023-06-05T09:06:07.486Z,95850.00
2023-06-05T09:07:06.562Z,95848.00
2023-06-05T09:08:07.587Z,95848.00
2023-06-05T09:09:07.634Z,95848.00
2023-06-05T09:10:07.677Z,95846.00
2023-06-05T09:11:06.807Z,95848.00
2023-06-05T09:12:07.745Z,95848.00
2023-06-05T09:13:06.781Z,95846.00
2023-06-05T09:14:07.804Z,95846.00
2023-06-05T09:15:06.850Z,95844.00
2023-06-05T09:16:07.865Z,95846.00
2023-06-05T09:17:07.872Z,95846.00
2023-06-05T09:18:06.994Z,95848.00
2023-06-05T09:19:08.010Z,95846.00
2023-06-05T09:20:07.968Z,95846.00
2023-06-05T09:21:08.164Z,95844.00
2023-06-05T09:22:07.006Z,95844.00
2023-06-05T09:23:17.974Z,95844.00
2023-06-05T09:24:08.129Z,95846.00
2023-06-05T09:25:08.049Z,95844.00
2023-06-05T09:26:08.268Z,95844.00
2023-06-05T09:27:08.041Z,95846.00
2023-06-05T09:28:06.995Z,95843.00
2023-06-05T09:29:07.991Z,95844.00
2023-06-05T09:30:06.971Z,95848.00
2023-06-05T09:31:08.015Z,95846.00
2023-06-05T09:32:07.978Z,95844.00
2023-06-05T09:33:06.966Z,95846.00
2023-06-05T09:34:06.965Z,95844.00
2023-06-05T09:35:07.950Z,95846.00
2023-06-05T09:36:08.340Z,95846.00
2023-06-05T09:37:07.946Z,95844.00
2023-06-05T09:38:07.932Z,95844.00
2023-06-05T09:39:07.915Z,95844.00
2023-06-05T09:40:07.923Z,95846.00
2023-06-05T09:41:06.915Z,95844.00
2023-06-05T09:42:06.909Z,95844.00
2023-06-05T09:43:06.889Z,95846.00
2023-06-05T09:44:07.866Z,95846.00
2023-06-05T09:45:07.870Z,95846.00
2023-06-05T09:46:08.173Z,95844.00
2023-06-05T09:47:08.007Z,95846.00
2023-06-05T09:48:06.899Z,95843.00
2023-06-05T09:49:06.856Z,95844.00
2023-06-05T09:50:07.958Z,95843.00
2023-06-05T09:51:07.935Z,95844.00
2023-06-05T09:52:06.835Z,95843.00
2023-06-05T09:53:08.213Z,95839.00
2023-06-05T09:54:07.798Z,95839.00
2023-06-05T09:55:06.813Z,95841.00
2023-06-05T09:56:07.895Z,95841.00
2023-06-05T09:57:07.796Z,95839.00
2023-06-05T09:58:06.784Z,95843.00
2023-06-05T09:59:06.767Z,95839.00
2023-06-05T10:00:07.754Z,95844.00
2023-06-05T10:01:07.813Z,95839.00
2023-06-05T10:02:07.738Z,95837.00
2023-06-05T10:03:07.840Z,95839.00
2023-06-05T10:04:07.830Z,95833.00
2023-06-05T10:05:06.871Z,95835.00
2023-06-05T10:06:18.572Z,95833.00
2023-06-05T10:07:07.897Z,95833.00
2023-06-05T10:08:07.886Z,95833.00
2023-06-05T10:09:07.899Z,95831.00
2023-06-05T10:10:07.866Z,95835.00
2023-06-05T10:11:06.926Z,95833.00
2023-06-05T10:12:07.852Z,95833.00
2023-06-05T10:13:06.840Z,95835.00
2023-06-05T10:14:07.853Z,95839.00
2023-06-05T10:15:06.838Z,95839.00
2023-06-05T10:16:14.459Z,95837.00
2023-06-05T10:17:07.833Z,95839.00
2023-06-05T10:18:06.845Z,95841.00
2023-06-05T10:19:07.806Z,95839.00
2023-06-05T10:20:06.797Z,95837.00
2023-06-05T10:21:06.788Z,95841.00
2023-06-05T10:22:07.786Z,95839.00
2023-06-05T10:23:06.789Z,95839.00
2023-06-05T10:24:07.930Z,95837.00
2023-06-05T10:25:07.789Z,95835.00
2023-06-05T10:26:06.801Z,95835.00
2023-06-05T10:27:07.738Z,95835.00
2023-06-05T10:28:06.737Z,95833.00
2023-06-05T10:29:06.717Z,95833.00
2023-06-05T10:30:07.740Z,95833.00
2023-06-05T10:31:07.712Z,95835.00
2023-06-05T10:32:06.893Z,95831.00
2023-06-05T10:33:06.750Z,95829.00
2023-06-05T10:34:06.694Z,95833.00
2023-06-05T10:35:07.688Z,95833.00
2023-06-05T10:36:08.025Z,95833.00
2023-06-05T10:37:07.659Z,95835.00
2023-06-05T10:38:07.667Z,95831.00
2023-06-05T10:39:07.658Z,95829.00
2023-06-05T10:40:06.673Z,95833.00
2023-06-05T10:41:07.701Z,95829.00
2023-06-05T10:42:07.632Z,95829.00
2023-06-05T10:43:07.648Z,95829.00
2023-06-05T10:44:06.681Z,95831.00
2023-06-05T10:45:07.688Z,95831.00
2023-06-05T10:46:08.998Z,95835.00
2023-06-05T10:47:07.842Z,95831.00
2023-06-05T10:48:06.899Z,95833.00
2023-06-05T10:49:07.816Z,95835.00
2023-06-05T10:50:06.831Z,95835.00
2023-06-05T10:51:06.843Z,95837.00
2023-06-05T10:52:06.918Z,95835.00
2023-06-05T10:53:07.901Z,95835.00
2023-06-05T10:54:06.925Z,95833.00
2023-06-05T10:55:06.960Z,95833.00
2023-06-05T10:56:08.157Z,95833.00
2023-06-05T10:57:07.011Z,95833.00
2023-06-05T10:58:08.015Z,95831.00
2023-06-05T10:59:08.005Z,95833.00
2023-06-05T11:00:08.421Z,95837.00
2023-06-05T11:01:08.064Z,95837.00
2023-06-05T11:02:08.120Z,95837.00
2023-06-05T11:03:08.097Z,95835.00
2023-06-05T11:04:08.082Z,95837.00
2023-06-05T11:05:08.069Z,95835.00
2023-06-05T11:06:08.282Z,95835.00
2023-06-05T11:07:08.105Z,95839.00
2023-06-05T11:08:07.126Z,95837.00
2023-06-05T11:09:08.125Z,95837.00
2023-06-05T11:10:08.169Z,95839.00
2023-06-05T11:11:07.211Z,95839.00
2023-06-05T11:12:08.188Z,95837.00
2023-06-05T11:13:07.212Z,95837.00
2023-06-05T11:14:08.242Z,95839.00
2023-06-05T11:15:08.251Z,95839.00
2023-06-05T11:16:07.570Z,95839.00
2023-06-05T11:17:07.305Z,95839.00
2023-06-05T11:18:07.388Z,95839.00
2023-06-05T11:19:08.366Z,95835.00
2023-06-05T11:20:07.381Z,95835.00
2023-06-05T11:21:07.406Z,95837.00
2023-06-05T11:22:07.427Z,95837.00
2023-06-05T11:23:08.523Z,95839.00
2023-06-05T11:24:08.659Z,95837.00
2023-06-05T11:25:08.532Z,95839.00
2023-06-05T11:26:08.735Z,95833.00
2023-06-05T11:27:08.594Z,95833.00
2023-06-05T11:28:08.628Z,95833.00
2023-06-05T11:29:08.636Z,95835.00
2023-06-05T11:30:08.660Z,95833.00
2023-06-05T11:31:08.782Z,95835.00
2023-06-05T11:32:08.789Z,95835.00
2023-06-05T11:33:07.933Z,95835.00
2023-06-05T11:34:07.856Z,95831.00
2023-06-05T11:35:08.874Z,95831.00
2023-06-05T11:36:09.183Z,95835.00
2023-06-05T11:37:08.937Z,95833.00
2023-06-05T11:38:08.004Z,95833.00
2023-06-05T11:39:08.049Z,95831.00
2023-06-05T11:40:09.110Z,95835.00
2023-06-05T11:41:09.143Z,95833.00
2023-06-05T11:42:09.192Z,95835.00
2023-06-05T11:43:08.262Z,95833.00
2023-06-05T11:45:27.508Z,95831.00
2023-06-05T11:46:28.485Z,95833.00
2023-06-05T11:47:28.294Z,95831.00
2023-06-05T11:48:27.294Z,95835.00
2023-06-05T11:49:28.300Z,95833.00
2023-06-05T11:50:28.264Z,95831.00
2023-06-05T11:51:28.272Z,95831.00
2023-06-05T11:52:28.264Z,95831.00
2023-06-05T11:53:28.239Z,95831.00
2023-06-05T11:54:28.228Z,95829.00
2023-06-05T11:55:28.207Z,95831.00
2023-06-05T11:56:27.210Z,95831.00
2023-06-05T11:57:36.614Z,95829.00
2023-06-05T11:58:28.199Z,95829.00
2023-06-05T11:59:28.166Z,95829.00
2023-06-05T12:00:27.195Z,95827.00
2023-06-05T12:01:27.168Z,95829.00
2023-06-05T12:02:28.230Z,95829.00
2023-06-05T12:03:27.161Z,95829.00
2023-06-05T12:04:28.191Z,95827.00
2023-06-05T12:05:28.149Z,95827.00
2023-06-05T12:06:28.121Z,95829.00
2023-06-05T12:07:29.170Z,95827.00
2023-06-05T12:08:27.163Z,95829.00
2023-06-05T12:09:27.104Z,95825.00
2023-06-05T12:10:27.163Z,95827.00
2023-06-05T12:11:28.112Z,95827.00
2023-06-05T12:12:27.130Z,95825.00
2023-06-05T12:13:27.082Z,95827.00
2023-06-05T12:14:27.066Z,95827.00
2023-06-05T12:15:28.065Z,95825.00
2023-06-05T12:16:28.058Z,95825.00
2023-06-05T12:17:28.053Z,95825.00
2023-06-05T12:18:28.060Z,95827.00
2023-06-05T12:19:34.007Z,95825.00
2023-06-05T12:20:28.024Z,95825.00
2023-06-05T12:21:28.045Z,95825.00
2023-06-05T12:22:28.023Z,95821.00